sensor_id;sensor_type;location;lat;lon;timestamp;temperature;humidity
15707;DHT22;7953;54.302;10.128;2022-08-19T00:00:49;19.10;99.90
15707;DHT22;7953;54.302;10.128;2022-08-19T00:03:16;19.10;99.90
15707;DHT22;7953;54.302;10.128;2022-08-19T00:05:45;19.10;99.90
15707;DHT22;7953;54.302;10.128;2022-08-19T00:08:12;19.10;99.90
15707;DHT22;7953;54.302;10.128;2022-08-19T00:10:39;19.10;99.90
15707;DHT22;7953;54.302;10.128;2022-08-19T00:13:06;19.10;99.90
15707;DHT22;7953;54.302;10.128;2022-08-19T00:15:33;19.10;99.90
15707;DHT22;7953;54.302;10.128;2022-08-19T00:18:00;19.10;99.90
15707;DHT22;7953;54.302;10.128;2022-08-19T00:20:27;19.10;99.90
15707;DHT22;7953;54.302;10.128;2022-08-19T00:22:55;19.10;99.90
15707;DHT22;7953;54.302;10.128;2022-08-19T00:25:23;19.10;99.90
15707;DHT22;7953;54.302;10.128;2022-08-19T00:27:50;19.10;99.90
15707;DHT22;7953;54.302;10.128;2022-08-19T00:30:17;19.10;99.90
15707;DHT22;7953;54.302;10.128;2022-08-19T00:32:44;19.10;99.90
15707;DHT22;7953;54.302;10.128;2022-08-19T00:35:11;19.10;99.90
15707;DHT22;7953;54.302;10.128;2022-08-19T00:37:38;19.10;99.90
15707;DHT22;7953;54.302;10.128;2022-08-19T00:40:12;19.10;99.90
15707;DHT22;7953;54.302;10.128;2022-08-19T00:42:39;19.10;99.90
15707;DHT22;7953;54.302;10.128;2022-08-19T00:45:11;19.10;99.90
15707;DHT22;7953;54.302;10.128;2022-08-19T00:47:38;19.10;99.90
15707;DHT22;7953;54.302;10.128;2022-08-19T00:50:06;19.10;99.90
15707;DHT22;7953;54.302;10.128;2022-08-19T00:52:37;19.10;99.90
15707;DHT22;7953;54.302;10.128;2022-08-19T00:55:09;19.10;99.90
15707;DHT22;7953;54.302;10.128;2022-08-19T00:57:41;19.10;99.90
15707;DHT22;7953;54.302;10.128;2022-08-19T01:00:14;19.10;99.90
15707;DHT22;7953;54.302;10.128;2022-08-19T01:02:42;19.10;99.90
15707;DHT22;7953;54.302;10.128;2022-08-19T01:05:12;19.10;99.90
15707;DHT22;7953;54.302;10.128;2022-08-19T01:07:41;19.10;99.90
15707;DHT22;7953;54.302;10.128;2022-08-19T01:10:12;19.10;99.90
15707;DHT22;7953;54.302;10.128;2022-08-19T01:12:40;19.10;99.90
15707;DHT22;7953;54.302;10.128;2022-08-19T01:15:11;19.10;99.90
15707;DHT22;7953;54.302;10.128;2022-08-19T01:17:39;19.10;99.90
15707;DHT22;7953;54.302;10.128;2022-08-19T01:20:11;19.10;99.90
15707;DHT22;7953;54.302;10.128;2022-08-19T01:22:44;19.10;99.90
15707;DHT22;7953;54.302;10.128;2022-08-19T01:25:12;19.10;99.90
15707;DHT22;7953;54.302;10.128;2022-08-19T01:27:41;19.10;99.90
15707;DHT22;7953;54.302;10.128;2022-08-19T01:30:11;19.00;99.90
15707;DHT22;7953;54.302;10.128;2022-08-19T01:32:38;19.00;99.90
15707;DHT22;7953;54.302;10.128;2022-08-19T01:35:05;19.00;99.90
15707;DHT22;7953;54.302;10.128;2022-08-19T01:37:46;19.00;99.90
15707;DHT22;7953;54.302;10.128;2022-08-19T01:40:14;19.00;99.90
15707;DHT22;7953;54.302;10.128;2022-08-19T01:42:41;19.00;99.90
15707;DHT22;7953;54.302;10.128;2022-08-19T01:45:08;19.00;99.90
15707;DHT22;7953;54.302;10.128;2022-08-19T01:47:36;19.00;99.90
15707;DHT22;7953;54.302;10.128;2022-08-19T01:50:04;19.00;99.90
15707;DHT22;7953;54.302;10.128;2022-08-19T01:52:32;19.00;99.90
15707;DHT22;7953;54.302;10.128;2022-08-19T01:55:04;19.00;99.90
15707;DHT22;7953;54.302;10.128;2022-08-19T01:57:32;19.00;99.90
15707;DHT22;7953;54.302;10.128;2022-08-19T01:59:59;19.00;99.90
15707;DHT22;7953;54.302;10.128;2022-08-19T02:02:28;19.00;99.90
15707;DHT22;7953;54.302;10.128;2022-08-19T02:04:55;19.00;99.90
15707;DHT22;7953;54.302;10.128;2022-08-19T02:07:22;19.00;99.90
15707;DHT22;7953;54.302;10.128;2022-08-19T02:09:49;19.00;99.90
15707;DHT22;7953;54.302;10.128;2022-08-19T02:12:17;19.10;99.90
15707;DHT22;7953;54.302;10.128;2022-08-19T02:14:44;19.00;99.90
15707;DHT22;7953;54.302;10.128;2022-08-19T02:17:11;19.10;99.90
15707;DHT22;7953;54.302;10.128;2022-08-19T02:19:38;19.00;99.90
15707;DHT22;7953;54.302;10.128;2022-08-19T02:22:06;19.00;99.90
15707;DHT22;7953;54.302;10.128;2022-08-19T02:24:33;19.00;99.90
15707;DHT22;7953;54.302;10.128;2022-08-19T02:26:59;19.00;99.90
15707;DHT22;7953;54.302;10.128;2022-08-19T02:29:28;18.90;99.90
15707;DHT22;7953;54.302;10.128;2022-08-19T02:31:55;19.00;99.90
15707;DHT22;7953;54.302;10.128;2022-08-19T02:34:22;18.90;99.90
15707;DHT22;7953;54.302;10.128;2022-08-19T02:36:50;18.90;99.90
15707;DHT22;7953;54.302;10.128;2022-08-19T02:39:17;19.00;99.90
15707;DHT22;7953;54.302;10.128;2022-08-19T02:41:43;19.00;99.90
15707;DHT22;7953;54.302;10.128;2022-08-19T02:44:11;19.00;99.90
15707;DHT22;7953;54.302;10.128;2022-08-19T02:46:39;19.00;99.90
15707;DHT22;7953;54.302;10.128;2022-08-19T02:49:07;19.00;99.90
15707;DHT22;7953;54.302;10.128;2022-08-19T02:51:36;18.90;99.90
15707;DHT22;7953;54.302;10.128;2022-08-19T02:54:05;18.90;99.90
15707;DHT22;7953;54.302;10.128;2022-08-19T02:56:34;18.90;99.90
15707;DHT22;7953;54.302;10.128;2022-08-19T02:59:01;18.90;99.90
15707;DHT22;7953;54.302;10.128;2022-08-19T03:01:31;18.90;99.90
15707;DHT22;7953;54.302;10.128;2022-08-19T03:04:01;18.90;99.90
15707;DHT22;7953;54.302;10.128;2022-08-19T03:06:29;19.00;99.90
15707;DHT22;7953;54.302;10.128;2022-08-19T03:08:57;18.90;99.90
15707;DHT22;7953;54.302;10.128;2022-08-19T03:11:26;18.90;99.90
15707;DHT22;7953;54.302;10.128;2022-08-19T03:13:54;19.00;99.90
15707;DHT22;7953;54.302;10.128;2022-08-19T03:16:22;19.00;99.90
15707;DHT22;7953;54.302;10.128;2022-08-19T03:18:50;18.90;99.90
15707;DHT22;7953;54.302;10.128;2022-08-19T03:21:21;18.90;99.90
15707;DHT22;7953;54.302;10.128;2022-08-19T03:23:49;18.90;99.90
15707;DHT22;7953;54.302;10.128;2022-08-19T03:26:16;18.90;99.90
15707;DHT22;7953;54.302;10.128;2022-08-19T03:28:44;18.90;99.90
15707;DHT22;7953;54.302;10.128;2022-08-19T03:31:17;18.90;99.90
15707;DHT22;7953;54.302;10.128;2022-08-19T03:33:45;18.80;99.90
15707;DHT22;7953;54.302;10.128;2022-08-19T03:36:14;18.90;99.90
15707;DHT22;7953;54.302;10.128;2022-08-19T03:38:44;18.90;99.90
15707;DHT22;7953;54.302;10.128;2022-08-19T03:41:13;18.90;99.90
15707;DHT22;7953;54.302;10.128;2022-08-19T03:43:41;18.90;99.90
15707;DHT22;7953;54.302;10.128;2022-08-19T03:46:11;18.90;99.90
15707;DHT22;7953;54.302;10.128;2022-08-19T03:48:39;18.90;99.90
15707;DHT22;7953;54.302;10.128;2022-08-19T03:51:08;18.90;99.90
15707;DHT22;7953;54.302;10.128;2022-08-19T03:53:43;18.90;99.90
15707;DHT22;7953;54.302;10.128;2022-08-19T03:56:10;18.90;99.90
15707;DHT22;7953;54.302;10.128;2022-08-19T03:58:38;18.90;99.90
15707;DHT22;7953;54.302;10.128;2022-08-19T04:01:07;18.90;99.90
15707;DHT22;7953;54.302;10.128;2022-08-19T04:03:35;18.90;99.90
15707;DHT22;7953;54.302;10.128;2022-08-19T04:06:10;18.90;99.90
15707;DHT22;7953;54.302;10.128;2022-08-19T04:08:38;19.00;99.90
15707;DHT22;7953;54.302;10.128;2022-08-19T04:11:09;18.90;99.90
15707;DHT22;7953;54.302;10.128;2022-08-19T04:13:36;18.90;99.90
15707;DHT22;7953;54.302;10.128;2022-08-19T04:16:04;19.00;99.90
15707;DHT22;7953;54.302;10.128;2022-08-19T04:18:31;18.90;99.90
15707;DHT22;7953;54.302;10.128;2022-08-19T04:20:59;18.90;99.90
15707;DHT22;7953;54.302;10.128;2022-08-19T04:23:26;18.90;99.90
15707;DHT22;7953;54.302;10.128;2022-08-19T04:25:54;18.90;99.90
15707;DHT22;7953;54.302;10.128;2022-08-19T04:28:23;19.00;99.90
15707;DHT22;7953;54.302;10.128;2022-08-19T04:30:52;19.00;99.90
15707;DHT22;7953;54.302;10.128;2022-08-19T04:33:21;19.00;99.90
15707;DHT22;7953;54.302;10.128;2022-08-19T04:35:53;19.00;99.90
15707;DHT22;7953;54.302;10.128;2022-08-19T04:41:47;19.00;99.90
15707;DHT22;7953;54.302;10.128;2022-08-19T04:44:35;19.00;99.90
15707;DHT22;7953;54.302;10.128;2022-08-19T04:47:10;19.00;99.90
15707;DHT22;7953;54.302;10.128;2022-08-19T04:49:40;19.00;99.90
15707;DHT22;7953;54.302;10.128;2022-08-19T04:58:23;18.90;99.90
15707;DHT22;7953;54.302;10.128;2022-08-19T05:00:41;18.90;99.90
15707;DHT22;7953;54.302;10.128;2022-08-19T05:03:10;19.00;99.90
15707;DHT22;7953;54.302;10.128;2022-08-19T05:05:50;19.00;99.90
15707;DHT22;7953;54.302;10.128;2022-08-19T05:08:21;19.00;99.90
15707;DHT22;7953;54.302;10.128;2022-08-19T05:10:49;19.00;99.90
15707;DHT22;7953;54.302;10.128;2022-08-19T05:13:18;19.00;99.90
15707;DHT22;7953;54.302;10.128;2022-08-19T05:15:53;19.00;99.90
15707;DHT22;7953;54.302;10.128;2022-08-19T05:18:20;19.00;99.90
15707;DHT22;7953;54.302;10.128;2022-08-19T05:21:06;19.10;99.90
15707;DHT22;7953;54.302;10.128;2022-08-19T05:23:51;19.10;99.90
15707;DHT22;7953;54.302;10.128;2022-08-19T05:26:18;19.10;99.90
15707;DHT22;7953;54.302;10.128;2022-08-19T05:28:45;19.10;99.90
15707;DHT22;7953;54.302;10.128;2022-08-19T05:31:13;19.10;99.90
15707;DHT22;7953;54.302;10.128;2022-08-19T05:33:40;19.10;99.90
15707;DHT22;7953;54.302;10.128;2022-08-19T05:36:07;19.20;99.90
15707;DHT22;7953;54.302;10.128;2022-08-19T05:38:34;19.20;99.90
15707;DHT22;7953;54.302;10.128;2022-08-19T05:41:06;19.20;99.90
15707;DHT22;7953;54.302;10.128;2022-08-19T05:43:34;19.20;99.90
15707;DHT22;7953;54.302;10.128;2022-08-19T05:46:01;19.20;99.90
15707;DHT22;7953;54.302;10.128;2022-08-19T05:48:29;19.20;99.90
15707;DHT22;7953;54.302;10.128;2022-08-19T05:50:56;19.20;99.90
15707;DHT22;7953;54.302;10.128;2022-08-19T05:53:24;19.20;99.90
15707;DHT22;7953;54.302;10.128;2022-08-19T05:55:51;19.20;99.90
15707;DHT22;7953;54.302;10.128;2022-08-19T05:58:18;19.20;99.90
15707;DHT22;7953;54.302;10.128;2022-08-19T06:00:45;19.20;99.90
15707;DHT22;7953;54.302;10.128;2022-08-19T06:03:11;19.20;99.90
15707;DHT22;7953;54.302;10.128;2022-08-19T06:05:40;19.30;99.90
15707;DHT22;7953;54.302;10.128;2022-08-19T06:08:07;19.30;99.90
15707;DHT22;7953;54.302;10.128;2022-08-19T06:10:34;19.30;99.90
15707;DHT22;7953;54.302;10.128;2022-08-19T06:13:02;19.30;99.90
15707;DHT22;7953;54.302;10.128;2022-08-19T06:15:30;19.30;99.90
15707;DHT22;7953;54.302;10.128;2022-08-19T06:17:56;19.30;99.90
15707;DHT22;7953;54.302;10.128;2022-08-19T06:20:23;19.30;99.90
15707;DHT22;7953;54.302;10.128;2022-08-19T06:22:52;19.30;99.90
15707;DHT22;7953;54.302;10.128;2022-08-19T06:25:19;19.30;99.90
15707;DHT22;7953;54.302;10.128;2022-08-19T06:27:46;19.40;99.90
15707;DHT22;7953;54.302;10.128;2022-08-19T06:30:13;19.40;99.90
15707;DHT22;7953;54.302;10.128;2022-08-19T06:32:40;19.40;99.90
15707;DHT22;7953;54.302;10.128;2022-08-19T06:35:08;19.40;99.90
15707;DHT22;7953;54.302;10.128;2022-08-19T06:37:36;19.50;99.90
15707;DHT22;7953;54.302;10.128;2022-08-19T06:40:06;19.50;99.90
15707;DHT22;7953;54.302;10.128;2022-08-19T06:42:33;19.40;99.90
15707;DHT22;7953;54.302;10.128;2022-08-19T06:45:01;19.50;99.90
15707;DHT22;7953;54.302;10.128;2022-08-19T06:47:29;19.50;99.90
15707;DHT22;7953;54.302;10.128;2022-08-19T06:49:58;19.60;99.90
15707;DHT22;7953;54.302;10.128;2022-08-19T06:52:27;19.60;99.90
15707;DHT22;7953;54.302;10.128;2022-08-19T06:54:54;19.60;99.90
15707;DHT22;7953;54.302;10.128;2022-08-19T06:57:23;19.70;99.90
15707;DHT22;7953;54.302;10.128;2022-08-19T06:59:50;19.70;99.90
15707;DHT22;7953;54.302;10.128;2022-08-19T07:02:18;19.80;99.90
15707;DHT22;7953;54.302;10.128;2022-08-19T07:04:45;19.80;99.90
15707;DHT22;7953;54.302;10.128;2022-08-19T07:07:14;19.90;99.90
15707;DHT22;7953;54.302;10.128;2022-08-19T07:09:42;19.90;99.90
15707;DHT22;7953;54.302;10.128;2022-08-19T07:12:11;20.00;99.90
15707;DHT22;7953;54.302;10.128;2022-08-19T07:14:41;20.00;99.90
15707;DHT22;7953;54.302;10.128;2022-08-19T07:17:10;20.10;99.90
15707;DHT22;7953;54.302;10.128;2022-08-19T07:19:38;20.10;99.90
15707;DHT22;7953;54.302;10.128;2022-08-19T07:22:07;20.20;99.90
15707;DHT22;7953;54.302;10.128;2022-08-19T07:24:35;20.20;99.90
15707;DHT22;7953;54.302;10.128;2022-08-19T07:27:04;20.20;99.90
15707;DHT22;7953;54.302;10.128;2022-08-19T07:29:33;20.20;99.90
15707;DHT22;7953;54.302;10.128;2022-08-19T07:32:04;20.20;99.90
15707;DHT22;7953;54.302;10.128;2022-08-19T07:34:31;20.20;99.90
15707;DHT22;7953;54.302;10.128;2022-08-19T07:37:03;20.30;99.90
15707;DHT22;7953;54.302;10.128;2022-08-19T07:39:33;20.20;99.90
15707;DHT22;7953;54.302;10.128;2022-08-19T07:42:04;20.20;99.90
15707;DHT22;7953;54.302;10.128;2022-08-19T07:44:33;20.20;99.90
15707;DHT22;7953;54.302;10.128;2022-08-19T07:47:02;20.20;99.90
15707;DHT22;7953;54.302;10.128;2022-08-19T07:49:29;20.20;99.90
15707;DHT22;7953;54.302;10.128;2022-08-19T07:51:59;20.10;99.90
15707;DHT22;7953;54.302;10.128;2022-08-19T07:54:29;20.10;99.90
15707;DHT22;7953;54.302;10.128;2022-08-19T07:56:56;20.10;99.90
15707;DHT22;7953;54.302;10.128;2022-08-19T07:59:23;20.20;99.90
15707;DHT22;7953;54.302;10.128;2022-08-19T08:01:51;20.20;99.90
15707;DHT22;7953;54.302;10.128;2022-08-19T08:04:21;20.20;99.90
15707;DHT22;7953;54.302;10.128;2022-08-19T08:07:07;20.20;99.90
15707;DHT22;7953;54.302;10.128;2022-08-19T08:09:51;20.20;99.90
15707;DHT22;7953;54.302;10.128;2022-08-19T08:12:24;20.20;99.90
15707;DHT22;7953;54.302;10.128;2022-08-19T08:14:55;20.20;99.90
15707;DHT22;7953;54.302;10.128;2022-08-19T08:17:26;20.20;99.90
15707;DHT22;7953;54.302;10.128;2022-08-19T08:19:55;20.20;99.90
15707;DHT22;7953;54.302;10.128;2022-08-19T08:22:23;20.20;99.90
15707;DHT22;7953;54.302;10.128;2022-08-19T08:25:10;20.20;99.90
15707;DHT22;7953;54.302;10.128;2022-08-19T08:27:39;20.20;99.90
15707;DHT22;7953;54.302;10.128;2022-08-19T08:30:07;20.20;99.90
15707;DHT22;7953;54.302;10.128;2022-08-19T08:32:35;20.20;99.90
15707;DHT22;7953;54.302;10.128;2022-08-19T08:35:06;20.20;99.90
15707;DHT22;7953;54.302;10.128;2022-08-19T08:37:33;20.20;99.90
15707;DHT22;7953;54.302;10.128;2022-08-19T08:40:03;20.20;99.90
15707;DHT22;7953;54.302;10.128;2022-08-19T08:42:35;20.20;99.90
15707;DHT22;7953;54.302;10.128;2022-08-19T08:45:08;20.20;99.90
15707;DHT22;7953;54.302;10.128;2022-08-19T08:47:44;20.20;99.90
15707;DHT22;7953;54.302;10.128;2022-08-19T08:50:18;20.20;99.90
15707;DHT22;7953;54.302;10.128;2022-08-19T08:52:48;20.30;99.90
15707;DHT22;7953;54.302;10.128;2022-08-19T08:55:19;20.30;99.90
15707;DHT22;7953;54.302;10.128;2022-08-19T08:57:52;20.40;99.90
15707;DHT22;7953;54.302;10.128;2022-08-19T09:00:24;20.40;99.90
15707;DHT22;7953;54.302;10.128;2022-08-19T09:02:52;20.50;99.90
15707;DHT22;7953;54.302;10.128;2022-08-19T09:05:21;20.50;99.90
15707;DHT22;7953;54.302;10.128;2022-08-19T09:07:56;20.60;99.90
15707;DHT22;7953;54.302;10.128;2022-08-19T09:10:31;20.60;99.90
15707;DHT22;7953;54.302;10.128;2022-08-19T09:13:06;20.70;99.90
15707;DHT22;7953;54.302;10.128;2022-08-19T09:15:41;20.70;99.90
15707;DHT22;7953;54.302;10.128;2022-08-19T09:18:10;20.70;99.90
15707;DHT22;7953;54.302;10.128;2022-08-19T09:20:38;20.80;99.90
15707;DHT22;7953;54.302;10.128;2022-08-19T09:23:05;20.80;99.90
15707;DHT22;7953;54.302;10.128;2022-08-19T09:25:32;20.80;99.90
15707;DHT22;7953;54.302;10.128;2022-08-19T09:28:00;20.80;99.90
15707;DHT22;7953;54.302;10.128;2022-08-19T09:30:31;20.80;99.90
15707;DHT22;7953;54.302;10.128;2022-08-19T09:32:59;20.80;99.90
15707;DHT22;7953;54.302;10.128;2022-08-19T09:35:28;20.80;99.90
15707;DHT22;7953;54.302;10.128;2022-08-19T09:37:58;20.80;99.90
15707;DHT22;7953;54.302;10.128;2022-08-19T09:40:26;20.70;99.90
15707;DHT22;7953;54.302;10.128;2022-08-19T09:42:53;20.70;99.90
15707;DHT22;7953;54.302;10.128;2022-08-19T09:45:22;20.70;99.90
15707;DHT22;7953;54.302;10.128;2022-08-19T09:47:50;20.60;99.90
15707;DHT22;7953;54.302;10.128;2022-08-19T09:50:18;20.60;99.90
15707;DHT22;7953;54.302;10.128;2022-08-19T09:52:45;20.60;99.90
15707;DHT22;7953;54.302;10.128;2022-08-19T09:55:14;20.50;99.90
15707;DHT22;7953;54.302;10.128;2022-08-19T09:57:41;20.60;99.90
15707;DHT22;7953;54.302;10.128;2022-08-19T10:00:09;20.50;99.90
15707;DHT22;7953;54.302;10.128;2022-08-19T10:02:36;20.50;99.90
15707;DHT22;7953;54.302;10.128;2022-08-19T10:05:04;20.50;99.90
15707;DHT22;7953;54.302;10.128;2022-08-19T10:08:00;20.50;99.90
15707;DHT22;7953;54.302;10.128;2022-08-19T10:10:28;20.50;99.90
15707;DHT22;7953;54.302;10.128;2022-08-19T10:12:55;20.40;99.90
15707;DHT22;7953;54.302;10.128;2022-08-19T10:15:22;20.40;99.90
15707;DHT22;7953;54.302;10.128;2022-08-19T10:17:49;20.40;99.90
15707;DHT22;7953;54.302;10.128;2022-08-19T10:20:16;20.40;99.90
15707;DHT22;7953;54.302;10.128;2022-08-19T10:22:43;20.50;99.90
15707;DHT22;7953;54.302;10.128;2022-08-19T10:25:10;20.50;99.90
15707;DHT22;7953;54.302;10.128;2022-08-19T10:27:43;20.50;99.90
15707;DHT22;7953;54.302;10.128;2022-08-19T10:30:11;20.50;99.90
15707;DHT22;7953;54.302;10.128;2022-08-19T10:32:39;20.40;99.90
15707;DHT22;7953;54.302;10.128;2022-08-19T10:35:06;20.50;99.90
15707;DHT22;7953;54.302;10.128;2022-08-19T10:37:34;20.50;99.90
15707;DHT22;7953;54.302;10.128;2022-08-19T10:40:01;20.50;99.90
15707;DHT22;7953;54.302;10.128;2022-08-19T10:42:28;20.50;99.90
15707;DHT22;7953;54.302;10.128;2022-08-19T10:44:58;20.50;99.90
15707;DHT22;7953;54.302;10.128;2022-08-19T10:47:25;20.50;99.90
15707;DHT22;7953;54.302;10.128;2022-08-19T10:49:53;20.50;99.90
15707;DHT22;7953;54.302;10.128;2022-08-19T10:52:38;20.50;99.90
15707;DHT22;7953;54.302;10.128;2022-08-19T10:55:06;20.60;99.90
15707;DHT22;7953;54.302;10.128;2022-08-19T10:57:51;20.60;99.90
15707;DHT22;7953;54.302;10.128;2022-08-19T11:00:21;20.70;99.90
15707;DHT22;7953;54.302;10.128;2022-08-19T11:02:49;20.80;99.90
15707;DHT22;7953;54.302;10.128;2022-08-19T11:05:16;20.80;99.90
15707;DHT22;7953;54.302;10.128;2022-08-19T11:07:44;20.90;99.90
15707;DHT22;7953;54.302;10.128;2022-08-19T11:10:13;20.90;99.90
15707;DHT22;7953;54.302;10.128;2022-08-19T11:12:40;20.90;99.90
15707;DHT22;7953;54.302;10.128;2022-08-19T11:15:09;21.00;99.90
15707;DHT22;7953;54.302;10.128;2022-08-19T11:17:38;21.10;99.90
15707;DHT22;7953;54.302;10.128;2022-08-19T11:20:09;21.10;99.90
15707;DHT22;7953;54.302;10.128;2022-08-19T11:22:37;21.10;99.90
15707;DHT22;7953;54.302;10.128;2022-08-19T11:25:06;21.10;99.90
15707;DHT22;7953;54.302;10.128;2022-08-19T11:27:33;21.10;99.90
15707;DHT22;7953;54.302;10.128;2022-08-19T11:30:00;21.20;99.90
15707;DHT22;7953;54.302;10.128;2022-08-19T11:32:29;21.30;99.90
15707;DHT22;7953;54.302;10.128;2022-08-19T11:34:57;21.40;99.90
15707;DHT22;7953;54.302;10.128;2022-08-19T11:37:24;21.40;99.90
15707;DHT22;7953;54.302;10.128;2022-08-19T11:39:51;21.50;99.90
15707;DHT22;7953;54.302;10.128;2022-08-19T11:42:18;21.60;99.90
15707;DHT22;7953;54.302;10.128;2022-08-19T11:45:03;21.70;99.90
15707;DHT22;7953;54.302;10.128;2022-08-19T11:47:31;21.70;99.90
15707;DHT22;7953;54.302;10.128;2022-08-19T11:49:59;21.80;99.90
15707;DHT22;7953;54.302;10.128;2022-08-19T11:52:26;21.80;99.90
15707;DHT22;7953;54.302;10.128;2022-08-19T11:54:55;21.80;99.90
15707;DHT22;7953;54.302;10.128;2022-08-19T11:57:22;21.80;99.90
15707;DHT22;7953;54.302;10.128;2022-08-19T11:59:49;21.80;99.90
15707;DHT22;7953;54.302;10.128;2022-08-19T12:02:16;21.80;99.90
15707;DHT22;7953;54.302;10.128;2022-08-19T12:04:44;21.80;99.90
15707;DHT22;7953;54.302;10.128;2022-08-19T12:07:14;21.80;99.90
15707;DHT22;7953;54.302;10.128;2022-08-19T12:09:41;21.80;99.90
15707;DHT22;7953;54.302;10.128;2022-08-19T12:12:08;21.70;99.90
15707;DHT22;7953;54.302;10.128;2022-08-19T12:14:35;21.80;99.90
15707;DHT22;7953;54.302;10.128;2022-08-19T12:17:03;21.70;99.90
15707;DHT22;7953;54.302;10.128;2022-08-19T12:19:33;21.60;99.90
15707;DHT22;7953;54.302;10.128;2022-08-19T12:22:01;21.60;99.90
15707;DHT22;7953;54.302;10.128;2022-08-19T12:24:32;21.60;99.90
15707;DHT22;7953;54.302;10.128;2022-08-19T12:26:59;21.50;99.90
15707;DHT22;7953;54.302;10.128;2022-08-19T12:29:27;21.50;99.90
15707;DHT22;7953;54.302;10.128;2022-08-19T12:31:55;21.50;99.90
15707;DHT22;7953;54.302;10.128;2022-08-19T12:34:26;21.40;99.90
15707;DHT22;7953;54.302;10.128;2022-08-19T12:36:55;21.40;99.90
15707;DHT22;7953;54.302;10.128;2022-08-19T12:39:22;21.40;99.90
15707;DHT22;7953;54.302;10.128;2022-08-19T12:41:51;21.30;99.90
15707;DHT22;7953;54.302;10.128;2022-08-19T12:44:18;21.30;99.90
15707;DHT22;7953;54.302;10.128;2022-08-19T12:46:46;21.30;99.90
15707;DHT22;7953;54.302;10.128;2022-08-19T12:49:14;21.30;99.90
15707;DHT22;7953;54.302;10.128;2022-08-19T12:51:41;21.30;99.90
15707;DHT22;7953;54.302;10.128;2022-08-19T12:54:08;21.30;99.90
15707;DHT22;7953;54.302;10.128;2022-08-19T12:56:36;21.40;99.90
15707;DHT22;7953;54.302;10.128;2022-08-19T12:59:04;21.40;99.90
15707;DHT22;7953;54.302;10.128;2022-08-19T13:01:33;21.50;99.90
15707;DHT22;7953;54.302;10.128;2022-08-19T13:04:00;21.60;99.90
15707;DHT22;7953;54.302;10.128;2022-08-19T13:06:27;21.70;99.90
15707;DHT22;7953;54.302;10.128;2022-08-19T13:08:54;21.70;99.90
15707;DHT22;7953;54.302;10.128;2022-08-19T13:14:45;21.80;99.90
15707;DHT22;7953;54.302;10.128;2022-08-19T13:17:15;21.80;99.90
15707;DHT22;7953;54.302;10.128;2022-08-19T13:19:42;21.80;99.90
15707;DHT22;7953;54.302;10.128;2022-08-19T13:22:09;21.80;99.90
15707;DHT22;7953;54.302;10.128;2022-08-19T13:24:37;21.80;99.90
15707;DHT22;7953;54.302;10.128;2022-08-19T13:27:04;21.80;99.90
15707;DHT22;7953;54.302;10.128;2022-08-19T13:29:32;21.80;99.90
15707;DHT22;7953;54.302;10.128;2022-08-19T13:32:18;21.90;99.90
15707;DHT22;7953;54.302;10.128;2022-08-19T13:35:03;22.00;99.90
15707;DHT22;7953;54.302;10.128;2022-08-19T13:37:30;22.10;99.90
15707;DHT22;7953;54.302;10.128;2022-08-19T13:40:13;22.10;99.90
15707;DHT22;7953;54.302;10.128;2022-08-19T13:42:41;22.20;99.90
15707;DHT22;7953;54.302;10.128;2022-08-19T13:45:09;22.20;99.90
15707;DHT22;7953;54.302;10.128;2022-08-19T13:47:38;22.30;99.90
15707;DHT22;7953;54.302;10.128;2022-08-19T13:50:10;22.30;99.90
15707;DHT22;7953;54.302;10.128;2022-08-19T13:52:38;22.40;99.90
15707;DHT22;7953;54.302;10.128;2022-08-19T13:55:07;22.30;99.90
15707;DHT22;7953;54.302;10.128;2022-08-19T13:57:34;22.40;99.90
15707;DHT22;7953;54.302;10.128;2022-08-19T14:00:07;22.30;99.90
15707;DHT22;7953;54.302;10.128;2022-08-19T14:02:35;22.30;99.90
15707;DHT22;7953;54.302;10.128;2022-08-19T14:05:08;22.40;99.90
15707;DHT22;7953;54.302;10.128;2022-08-19T14:07:35;22.40;99.90
15707;DHT22;7953;54.302;10.128;2022-08-19T14:10:04;22.40;99.90
15707;DHT22;7953;54.302;10.128;2022-08-19T14:12:31;22.40;99.90
15707;DHT22;7953;54.302;10.128;2022-08-19T14:14:58;22.40;99.90
15707;DHT22;7953;54.302;10.128;2022-08-19T14:17:25;22.30;99.90
15707;DHT22;7953;54.302;10.128;2022-08-19T14:19:56;22.30;99.90
15707;DHT22;7953;54.302;10.128;2022-08-19T14:22:24;22.30;99.90
15707;DHT22;7953;54.302;10.128;2022-08-19T14:24:51;22.30;99.90
15707;DHT22;7953;54.302;10.128;2022-08-19T14:27:18;22.20;99.90
15707;DHT22;7953;54.302;10.128;2022-08-19T14:29:45;22.20;99.90
15707;DHT22;7953;54.302;10.128;2022-08-19T14:32:12;22.20;99.90
15707;DHT22;7953;54.302;10.128;2022-08-19T14:34:38;22.10;99.90
15707;DHT22;7953;54.302;10.128;2022-08-19T14:37:05;22.10;99.90
15707;DHT22;7953;54.302;10.128;2022-08-19T14:39:34;22.10;99.90
15707;DHT22;7953;54.302;10.128;2022-08-19T14:42:05;22.20;99.90
15707;DHT22;7953;54.302;10.128;2022-08-19T14:44:33;22.20;99.90
15707;DHT22;7953;54.302;10.128;2022-08-19T14:47:00;22.30;99.90
15707;DHT22;7953;54.302;10.128;2022-08-19T14:49:27;22.30;99.90
15707;DHT22;7953;54.302;10.128;2022-08-19T14:51:54;22.40;99.90
15707;DHT22;7953;54.302;10.128;2022-08-19T14:54:22;22.40;99.90
15707;DHT22;7953;54.302;10.128;2022-08-19T14:56:50;22.50;99.90
15707;DHT22;7953;54.302;10.128;2022-08-19T14:59:17;22.60;99.90
15707;DHT22;7953;54.302;10.128;2022-08-19T15:01:44;22.60;99.90
15707;DHT22;7953;54.302;10.128;2022-08-19T15:04:11;22.70;99.90
15707;DHT22;7953;54.302;10.128;2022-08-19T15:06:39;22.70;99.90
15707;DHT22;7953;54.302;10.128;2022-08-19T15:09:08;22.80;99.90
15707;DHT22;7953;54.302;10.128;2022-08-19T15:11:35;22.80;99.90
15707;DHT22;7953;54.302;10.128;2022-08-19T15:14:04;22.90;99.90
15707;DHT22;7953;54.302;10.128;2022-08-19T15:16:32;22.90;99.90
15707;DHT22;7953;54.302;10.128;2022-08-19T15:19:00;23.00;99.90
15707;DHT22;7953;54.302;10.128;2022-08-19T15:21:29;22.90;99.90
15707;DHT22;7953;54.302;10.128;2022-08-19T15:23:57;22.90;99.90
15707;DHT22;7953;54.302;10.128;2022-08-19T15:26:25;23.00;99.90
15707;DHT22;7953;54.302;10.128;2022-08-19T15:28:53;23.00;99.90
15707;DHT22;7953;54.302;10.128;2022-08-19T15:31:22;22.90;99.90
15707;DHT22;7953;54.302;10.128;2022-08-19T15:33:49;22.90;99.90
15707;DHT22;7953;54.302;10.128;2022-08-19T15:36:16;22.90;99.90
15707;DHT22;7953;54.302;10.128;2022-08-19T15:38:43;22.80;99.90
15707;DHT22;7953;54.302;10.128;2022-08-19T15:41:16;22.80;99.90
15707;DHT22;7953;54.302;10.128;2022-08-19T15:43:51;22.70;99.90
15707;DHT22;7953;54.302;10.128;2022-08-19T15:46:19;22.70;99.90
15707;DHT22;7953;54.302;10.128;2022-08-19T15:48:49;22.70;99.90
15707;DHT22;7953;54.302;10.128;2022-08-19T15:51:17;22.80;99.90
15707;DHT22;7953;54.302;10.128;2022-08-19T15:53:44;22.80;99.90